Time;durP1;ratioP1;P1;durP2;ratioP2;P2;SDS_P1;SDS_P2;PMS_P1;PMS_P2;Temp;Humidity;BMP_temperature;BMP_pressure;BME280_temperature;BME280_humidity;BME280_pressure;Samples;Min_cycle;Max_cycle;Signal;HPM_P1;HPM_P2
2022/04/04 00:04:58;;;;;;;11.13;6.20;;;;;;;;;;10515341;28;20136;-69
2022/04/04 00:09:58;;;;;;;8.38;6.35;;;;;;;;;;10514491;28;20032;-73
2022/04/04 00:14:58;;;;;;;9.80;6.20;;;;;;;;;;10533142;28;20020;-76
2022/04/04 00:19:59;;;;;;;8.15;5.63;;;;;;;;;;10514288;28;20115;-69
2022/04/04 00:25:00;;;;;;;8.82;5.95;;;;;;;;;;10497954;28;20016;-72
2022/04/04 00:30:00;;;;;;;9.15;6.22;;;;;;;;;;10514249;28;20028;-71
2022/04/04 00:35:01;;;;;;;6.72;5.75;;;;;;;;;;10513064;28;20027;-72
2022/04/04 00:40:02;;;;;;;9.70;6.17;;;;;;;;;;10514285;28;20107;-74
2022/04/04 00:45:02;;;;;;;8.90;5.88;;;;;;;;;;10513316;28;20044;-72
2022/04/04 00:50:03;;;;;;;9.38;6.50;;;;;;;;;;10513667;28;20024;-72
2022/04/04 00:55:04;;;;;;;8.73;6.45;;;;;;;;;;10513381;28;20585;-71
2022/04/04 01:00:06;;;;;;;9.38;5.70;;;;;;;;;;10496467;28;20031;-72
2022/04/04 01:05:07;;;;;;;10.60;6.60;;;;;;;;;;10512968;28;20016;-71
2022/04/04 01:10:09;;;;;;;8.32;5.93;;;;;;;;;;10531507;28;20028;-70
2022/04/04 01:15:09;;;;;;;12.23;6.22;;;;;;;;;;10496007;28;20020;-74
2022/04/04 01:20:09;;;;;;;11.60;6.90;;;;;;;;;;10512167;28;20406;-70
2022/04/04 01:25:10;;;;;;;12.73;6.25;;;;;;;;;;10512189;28;20265;-71
2022/04/04 01:30:10;;;;;;;17.70;6.78;;;;;;;;;;10512599;28;20035;-72
2022/04/04 01:35:11;;;;;;;8.27;5.57;;;;;;;;;;10511761;28;20150;-72
2022/04/04 01:40:11;;;;;;;8.63;5.47;;;;;;;;;;10511908;28;20027;-71
2022/04/04 01:45:12;;;;;;;9.57;5.97;;;;;;;;;;10510968;28;20135;-74
2022/04/04 01:50:12;;;;;;;10.05;6.82;;;;;;;;;;10511894;28;20076;-71
2022/04/04 01:55:12;;;;;;;8.63;6.53;;;;;;;;;;10529714;28;20024;-71
2022/04/04 02:00:13;;;;;;;8.18;6.00;;;;;;;;;;10510978;28;20047;-72
2022/04/04 02:05:13;;;;;;;11.10;5.95;;;;;;;;;;10529857;28;20494;-71
2022/04/04 02:10:13;;;;;;;8.48;6.68;;;;;;;;;;10512020;28;20393;-72
2022/04/04 02:15:14;;;;;;;5.40;4.88;;;;;;;;;;10511209;28;20024;-70
2022/04/04 02:20:14;;;;;;;9.05;6.28;;;;;;;;;;10511208;28;20054;-71
2022/04/04 02:25:14;;;;;;;7.17;5.07;;;;;;;;;;10511060;28;20036;-73
2022/04/04 02:30:15;;;;;;;7.78;6.05;;;;;;;;;;10510793;28;20020;-72
2022/04/04 02:35:15;;;;;;;10.07;6.40;;;;;;;;;;10529089;28;20171;-74
2022/04/04 02:40:15;;;;;;;7.50;5.00;;;;;;;;;;10510770;28;20020;-75
2022/04/04 02:45:16;;;;;;;7.93;6.67;;;;;;;;;;10510522;28;20036;-71
2022/04/04 02:50:16;;;;;;;8.60;6.75;;;;;;;;;;10528741;28;20107;-70
2022/04/04 03:00:35;;;;;;;12.90;8.88;;;;;;;;;;10536152;28;20024;-74
2022/04/04 03:05:36;;;;;;;11.82;8.40;;;;;;;;;;10517642;28;20012;-68
2022/04/04 03:10:36;;;;;;;11.45;8.93;;;;;;;;;;10501327;28;20027;-72
2022/04/04 03:15:37;;;;;;;12.02;7.90;;;;;;;;;;10517982;28;20081;-75
2022/04/04 03:20:37;;;;;;;13.95;8.60;;;;;;;;;;10516789;28;20024;-71
2022/04/04 03:25:38;;;;;;;12.50;8.63;;;;;;;;;;10516859;28;20154;-74
2022/04/04 03:30:38;;;;;;;12.68;8.80;;;;;;;;;;10534774;28;20116;-70
2022/04/04 03:35:39;;;;;;;18.17;8.73;;;;;;;;;;10534347;28;20032;-69
2022/04/04 03:40:39;;;;;;;13.40;9.00;;;;;;;;;;10516329;28;20046;-71
2022/04/04 03:45:40;;;;;;;14.98;10.05;;;;;;;;;;10534537;28;20100;-72
2022/04/04 03:50:40;;;;;;;15.65;9.93;;;;;;;;;;10516112;28;20053;-71
2022/04/04 03:55:42;;;;;;;16.80;9.43;;;;;;;;;;10533573;28;20031;-71
2022/04/04 04:00:42;;;;;;;15.25;10.15;;;;;;;;;;10515426;28;20073;-71
2022/04/04 04:05:42;;;;;;;20.05;10.93;;;;;;;;;;10515147;28;20213;-72
2022/04/04 04:10:43;;;;;;;20.52;11.32;;;;;;;;;;10514942;28;20031;-75
2022/04/04 04:15:43;;;;;;;14.68;10.40;;;;;;;;;;10515064;28;20023;-75
2022/04/04 04:20:43;;;;;;;18.23;10.17;;;;;;;;;;10514668;28;20476;-73
2022/04/04 04:25:44;;;;;;;17.67;11.07;;;;;;;;;;10514644;28;20656;-72
2022/04/04 04:30:44;;;;;;;24.73;10.47;;;;;;;;;;10525729;28;20025;-72
2022/04/04 04:35:44;;;;;;;20.23;11.00;;;;;;;;;;10490511;28;20074;-72
2022/04/04 04:40:45;;;;;;;18.57;11.37;;;;;;;;;;10502018;28;20330;-70
2022/04/04 04:45:45;;;;;;;17.23;9.68;;;;;;;;;;10471931;28;20055;-71
2022/04/04 04:50:47;;;;;;;17.92;11.18;;;;;;;;;;10471660;28;20475;-72
2022/04/04 04:55:48;;;;;;;22.48;14.27;;;;;;;;;;10505820;28;20066;-72
2022/04/04 05:00:48;;;;;;;11.48;8.40;;;;;;;;;;10513080;28;20113;-72
2022/04/04 05:05:51;;;;;;;17.05;11.13;;;;;;;;;;10500308;28;20020;-72
2022/04/04 05:10:52;;;;;;;21.08;10.45;;;;;;;;;;10471027;28;20474;-72
2022/04/04 05:15:54;;;;;;;21.80;10.40;;;;;;;;;;10470754;28;20024;-73
2022/04/04 05:20:55;;;;;;;17.83;11.05;;;;;;;;;;10470019;28;20024;-77
2022/04/04 05:25:55;;;;;;;20.63;10.88;;;;;;;;;;10470682;28;20571;-78
2022/04/04 05:30:56;;;;;;;24.80;12.00;;;;;;;;;;10470311;28;20482;-73
2022/04/04 05:35:56;;;;;;;21.10;12.43;;;;;;;;;;10469865;28;20506;-72
2022/04/04 05:40:57;;;;;;;20.42;10.30;;;;;;;;;;10487860;28;20012;-72
2022/04/04 05:45:57;;;;;;;22.02;11.38;;;;;;;;;;10487875;28;20066;-72
2022/04/04 05:50:57;;;;;;;14.10;10.43;;;;;;;;;;10469341;28;20021;-71
2022/04/04 05:55:57;;;;;;;23.50;12.20;;;;;;;;;;10452737;28;20115;-72
2022/04/04 06:00:58;;;;;;;17.27;11.13;;;;;;;;;;10469338;28;20013;-73
2022/04/04 06:05:58;;;;;;;18.45;11.30;;;;;;;;;;10487699;28;20518;-73
2022/04/04 06:10:58;;;;;;;14.80;10.30;;;;;;;;;;10469269;28;20013;-78
2022/04/04 06:15:59;;;;;;;22.17;10.57;;;;;;;;;;10469034;28;20039;-71
2022/04/04 06:20:59;;;;;;;16.45;8.93;;;;;;;;;;10469339;28;20080;-73
2022/04/04 06:26:05;;;;;;;14.83;9.73;;;;;;;;;;10469561;28;20016;-78
2022/04/04 06:31:05;;;;;;;13.23;9.95;;;;;;;;;;10486984;28;20077;-78
2022/04/04 06:36:05;;;;;;;17.60;9.98;;;;;;;;;;10476953;28;20025;-70
2022/04/04 06:41:06;;;;;;;15.80;8.80;;;;;;;;;;10476594;28;20447;-71
2022/04/04 06:46:06;;;;;;;11.83;8.73;;;;;;;;;;10459379;28;20384;-71
2022/04/04 06:51:06;;;;;;;21.80;10.97;;;;;;;;;;10493244;28;20267;-73
2022/04/04 06:56:07;;;;;;;16.13;9.63;;;;;;;;;;10476091;28;20368;-77
2022/04/04 07:01:07;;;;;;;14.75;9.88;;;;;;;;;;10475833;28;20072;-71
2022/04/04 07:06:07;;;;;;;16.63;9.87;;;;;;;;;;10475600;28;20028;-74
2022/04/04 07:11:10;;;;;;;15.50;9.07;;;;;;;;;;10475997;28;20024;-71
2022/04/04 07:16:10;;;;;;;16.30;9.45;;;;;;;;;;10458832;28;20025;-75
2022/04/04 07:21:10;;;;;;;19.17;8.47;;;;;;;;;;10491287;28;20024;-72
2022/04/04 07:26:11;;;;;;;19.83;9.75;;;;;;;;;;10458928;28;20017;-78
2022/04/04 07:31:11;;;;;;;17.75;9.13;;;;;;;;;;10474405;28;20482;-71
2022/04/04 07:36:11;;;;;;;17.83;11.02;;;;;;;;;;10474945;28;20062;-71
2022/04/04 07:41:12;;;;;;;17.37;9.77;;;;;;;;;;10474419;28;20429;-71
2022/04/04 07:46:12;;;;;;;14.45;9.75;;;;;;;;;;10457212;28;20083;-72
2022/04/04 07:51:12;;;;;;;16.35;10.77;;;;;;;;;;10474247;28;20031;-74
2022/04/04 07:56:13;;;;;;;14.45;9.15;;;;;;;;;;10473941;28;20031;-71
2022/04/04 08:01:13;;;;;;;18.83;9.50;;;;;;;;;;10473421;28;20112;-71
2022/04/04 08:06:13;;;;;;;17.03;9.77;;;;;;;;;;10473210;28;20103;-75
2022/04/04 08:11:14;;;;;;;22.45;9.93;;;;;;;;;;10473242;28;20935;-72
2022/04/04 08:16:14;;;;;;;14.25;8.90;;;;;;;;;;10472825;28;20448;-71
2022/04/04 08:21:15;;;;;;;14.95;8.98;;;;;;;;;;10472175;28;20111;-74
2022/04/04 08:26:16;;;;;;;12.90;8.90;;;;;;;;;;10488633;28;20469;-73
2022/04/04 08:31:16;;;;;;;16.92;8.32;;;;;;;;;;10490717;28;20074;-71
2022/04/04 08:36:17;;;;;;;14.23;9.30;;;;;;;;;;10471711;28;20066;-74
2022/04/04 08:41:18;;;;;;;17.27;8.47;;;;;;;;;;10490170;28;20027;-71
2022/04/04 08:46:18;;;;;;;13.05;7.93;;;;;;;;;;10489459;28;20803;-75
2022/04/04 08:51:20;;;;;;;10.87;7.47;;;;;;;;;;10471494;28;20127;-79
2022/04/04 08:56:21;;;;;;;11.50;7.28;;;;;;;;;;10488695;28;20774;-78
2022/04/04 09:01:22;;;;;;;19.30;9.15;;;;;;;;;;10471204;28;20524;-72
2022/04/04 09:06:26;;;;;;;12.10;8.02;;;;;;;;;;10471025;28;20570;-71
2022/04/04 09:11:27;;;;;;;22.15;10.48;;;;;;;;;;10454276;28;20403;-72
2022/04/04 09:16:27;;;;;;;14.43;7.80;;;;;;;;;;10470530;28;20058;-72
2022/04/04 09:21:29;;;;;;;12.38;7.32;;;;;;;;;;10453918;28;20262;-70
2022/04/04 09:26:32;;;;;;;12.98;8.25;;;;;;;;;;10470500;28;20111;-72
2022/04/04 09:31:32;;;;;;;13.23;8.20;;;;;;;;;;10470028;28;20028;-71
2022/04/04 09:36:44;;;;;;;15.45;7.60;;;;;;;;;;10469677;28;20425;-72
2022/04/04 09:41:44;;;;;;;13.60;8.65;;;;;;;;;;10487605;28;20029;-72
2022/04/04 09:46:45;;;;;;;12.55;9.30;;;;;;;;;;10469601;28;20056;-71
2022/04/04 09:51:50;;;;;;;17.65;7.93;;;;;;;;;;10486812;28;20045;-74
2022/04/04 09:57:09;;;;;;;12.68;8.68;;;;;;;;;;10487500;28;20469;-71
2022/04/04 10:02:11;;;;;;;13.52;8.00;;;;;;;;;;10469406;28;20063;-77
2022/04/04 10:07:14;;;;;;;16.60;7.60;;;;;;;;;;10490601;28;20028;-76
2022/04/04 10:12:15;;;;;;;20.20;9.15;;;;;;;;;;10477980;28;20104;-76
2022/04/04 10:17:16;;;;;;;13.20;7.65;;;;;;;;;;10494112;28;20069;-72
2022/04/04 10:22:18;;;;;;;15.05;8.48;;;;;;;;;;10477299;28;20017;-78
2022/04/04 10:27:20;;;;;;;13.38;8.35;;;;;;;;;;10476434;28;20422;-73
2022/04/04 10:32:24;;;;;;;14.15;7.97;;;;;;;;;;10476587;28;20494;-73
2022/04/04 10:37:26;;;;;;;12.88;9.00;;;;;;;;;;10494617;28;20383;-73
2022/04/04 10:42:33;;;;;;;13.90;8.00;;;;;;;;;;10494713;28;20020;-75
2022/04/04 10:47:34;;;;;;;11.27;7.23;;;;;;;;;;10476322;28;20137;-74
2022/04/04 10:52:39;;;;;;;12.60;8.13;;;;;;;;;;10476226;28;20119;-75
2022/04/04 10:57:42;;;;;;;14.32;7.82;;;;;;;;;;10476379;28;20028;-74
2022/04/04 11:02:44;;;;;;;13.70;8.68;;;;;;;;;;10492524;28;20406;-72
2022/04/04 11:07:48;;;;;;;15.43;8.68;;;;;;;;;;10475393;28;20032;-72
2022/04/04 11:12:55;;;;;;;13.07;7.43;;;;;;;;;;10475413;28;20062;-78
2022/04/04 11:17:57;;;;;;;13.07;7.72;;;;;;;;;;10474646;28;20052;-72
2022/04/04 11:23:03;;;;;;;16.50;7.70;;;;;;;;;;10475705;28;20501;-71
2022/04/04 11:28:04;;;;;;;12.38;7.95;;;;;;;;;;10475354;28;20387;-72
2022/04/04 11:33:10;;;;;;;10.30;7.07;;;;;;;;;;10474432;28;20028;-75
2022/04/04 11:38:17;;;;;;;12.77;7.35;;;;;;;;;;10491307;28;20028;-72
2022/04/04 11:43:17;;;;;;;15.68;7.82;;;;;;;;;;10474013;28;20446;-76
2022/04/04 11:48:23;;;;;;;12.80;7.57;;;;;;;;;;10492450;28;20028;-79
2022/04/04 11:53:26;;;;;;;13.57;8.25;;;;;;;;;;10474030;28;20035;-79
2022/04/04 11:58:27;;;;;;;13.35;7.95;;;;;;;;;;10491763;28;20027;-72
2022/04/04 12:03:27;;;;;;;13.98;7.03;;;;;;;;;;10473715;28;20032;-73
2022/04/04 12:08:28;;;;;;;15.23;8.20;;;;;;;;;;10473252;28;20041;-72
2022/04/04 12:13:28;;;;;;;13.75;7.70;;;;;;;;;;10456596;28;20024;-75
2022/04/04 12:18:29;;;;;;;9.80;5.93;;;;;;;;;;10489552;28;20029;-71
2022/04/04 12:28:49;;;;;;;10.50;6.68;;;;;;;;;;10497373;28;20028;-72
2022/04/04 12:34:00;;;;;;;12.35;7.70;;;;;;;;;;10472802;28;20028;-72
2022/04/04 12:39:01;;;;;;;15.00;7.90;;;;;;;;;;10472246;28;20020;-71
2022/04/04 12:44:02;;;;;;;11.47;6.30;;;;;;;;;;10490101;28;20078;-71
2022/04/04 12:49:19;;;;;;;8.52;5.97;;;;;;;;;;10471613;28;20063;-74
2022/04/04 12:54:23;;;;;;;12.13;7.28;;;;;;;;;;10471392;28;20032;-72
2022/04/04 12:59:25;;;;;;;12.90;7.53;;;;;;;;;;10489144;28;20101;-71
2022/04/04 13:04:25;;;;;;;16.35;7.50;;;;;;;;;;10504223;28;20020;-76
2022/04/04 13:09:27;;;;;;;11.93;6.47;;;;;;;;;;10531261;28;20410;-78
2022/04/04 13:14:27;;;;;;;12.63;6.43;;;;;;;;;;10472362;28;20039;-73
2022/04/04 13:19:27;;;;;;;13.50;6.40;;;;;;;;;;10474228;28;20024;-73
2022/04/04 13:24:29;;;;;;;7.97;5.55;;;;;;;;;;10512184;28;20027;-72
2022/04/04 13:29:30;;;;;;;11.57;6.30;;;;;;;;;;10491359;28;20513;-71
2022/04/04 13:34:31;;;;;;;12.57;6.38;;;;;;;;;;10470085;28;20084;-71
2022/04/04 13:39:31;;;;;;;9.60;5.95;;;;;;;;;;10469784;28;20035;-71
2022/04/04 13:44:31;;;;;;;12.18;6.57;;;;;;;;;;10469709;28;20052;-71
2022/04/04 13:49:33;;;;;;;10.80;6.07;;;;;;;;;;10469931;28;20036;-74
2022/04/04 13:54:33;;;;;;;11.23;6.53;;;;;;;;;;10487108;28;20020;-70
2022/04/04 13:59:34;;;;;;;7.93;5.90;;;;;;;;;;10511367;28;20020;-75
2022/04/04 14:04:35;;;;;;;14.00;6.72;;;;;;;;;;10511029;28;20028;-73
2022/04/04 14:09:36;;;;;;;10.55;6.00;;;;;;;;;;10511169;28;20391;-72
2022/04/04 14:14:37;;;;;;;11.30;5.93;;;;;;;;;;10511065;28;20028;-71
2022/04/04 14:19:37;;;;;;;12.23;6.43;;;;;;;;;;10497331;28;20379;-74
2022/04/04 14:24:37;;;;;;;11.73;6.35;;;;;;;;;;10487667;28;20023;-78
2022/04/04 14:29:37;;;;;;;11.48;6.05;;;;;;;;;;10481765;28;20081;-72
2022/04/04 14:34:38;;;;;;;9.68;6.00;;;;;;;;;;10507526;28;20642;-73
2022/04/04 14:39:39;;;;;;;9.95;5.05;;;;;;;;;;10485399;28;20054;-76
2022/04/04 14:44:41;;;;;;;9.50;5.40;;;;;;;;;;10486500;28;20506;-71
2022/04/04 14:49:41;;;;;;;10.00;6.43;;;;;;;;;;10468623;28;20553;-72
2022/04/04 14:54:41;;;;;;;9.63;6.00;;;;;;;;;;10488903;28;20031;-72
2022/04/04 14:59:42;;;;;;;14.25;6.13;;;;;;;;;;10475809;28;20775;-79
2022/04/04 15:04:42;;;;;;;9.37;6.27;;;;;;;;;;10475884;28;20689;-71
2022/04/04 15:09:42;;;;;;;10.15;5.85;;;;;;;;;;10462877;28;20081;-71
2022/04/04 15:14:43;;;;;;;12.87;8.17;;;;;;;;;;10516668;28;20027;-73
2022/04/04 15:19:43;;;;;;;12.25;6.35;;;;;;;;;;10512891;28;20107;-73
2022/04/04 15:24:43;;;;;;;9.95;7.28;;;;;;;;;;10516765;28;20355;-74
2022/04/04 15:29:43;;;;;;;8.90;5.63;;;;;;;;;;10507364;28;20552;-71
2022/04/04 15:34:44;;;;;;;8.95;6.07;;;;;;;;;;10474655;28;20494;-79
2022/04/04 15:39:44;;;;;;;9.93;5.70;;;;;;;;;;10474217;28;20757;-72
2022/04/04 15:44:45;;;;;;;9.93;5.70;;;;;;;;;;10484163;28;20044;-72
2022/04/04 15:49:46;;;;;;;9.70;5.20;;;;;;;;;;10515801;28;20516;-73
2022/04/04 15:54:46;;;;;;;9.63;6.22;;;;;;;;;;10533085;28;20031;-73
2022/04/04 15:59:47;;;;;;;13.93;6.65;;;;;;;;;;10514137;28;20016;-76
2022/04/04 16:04:47;;;;;;;13.27;6.40;;;;;;;;;;10514672;28;20012;-75
2022/04/04 16:09:47;;;;;;;17.27;6.57;;;;;;;;;;10515014;28;20027;-81
2022/04/04 16:14:47;;;;;;;9.60;6.00;;;;;;;;;;10498177;28;20131;-77
2022/04/04 16:19:48;;;;;;;11.48;6.82;;;;;;;;;;10473067;28;20025;-72
2022/04/04 16:24:48;;;;;;;24.00;7.30;;;;;;;;;;10486637;28;20027;-71
2022/04/04 16:29:50;;;;;;;10.02;6.55;;;;;;;;;;10507814;28;20038;-70
2022/04/04 16:34:50;;;;;;;16.13;6.72;;;;;;;;;;10508737;28;20027;-75
2022/04/04 16:39:52;;;;;;;11.75;7.65;;;;;;;;;;10485608;28;20429;-74
2022/04/04 16:44:55;;;;;;;11.18;6.90;;;;;;;;;;10509250;28;20036;-71
2022/04/04 16:49:55;;;;;;;11.73;6.93;;;;;;;;;;10500602;28;20506;-72
2022/04/04 16:54:56;;;;;;;12.60;6.85;;;;;;;;;;10468502;28;20111;-76
2022/04/04 16:59:56;;;;;;;12.13;5.97;;;;;;;;;;10500459;28;20020;-72
2022/04/04 17:04:56;;;;;;;11.60;6.83;;;;;;;;;;10512860;28;20058;-71
2022/04/04 17:09:58;;;;;;;9.87;6.20;;;;;;;;;;10468230;28;20025;-73
2022/04/04 17:14:58;;;;;;;11.43;6.22;;;;;;;;;;10496850;28;20408;-73
2022/04/04 17:19:59;;;;;;;14.07;6.07;;;;;;;;;;10510550;28;20031;-79
2022/04/04 17:24:59;;;;;;;11.13;6.35;;;;;;;;;;10495378;28;20024;-76
2022/04/04 17:29:59;;;;;;;10.82;6.78;;;;;;;;;;10482881;28;20461;-71
2022/04/04 17:35:00;;;;;;;20.20;7.25;;;;;;;;;;10511374;28;20034;-69
2022/04/04 17:40:01;;;;;;;13.02;7.55;;;;;;;;;;10480653;28;20024;-70
2022/04/04 17:45:03;;;;;;;12.77;6.93;;;;;;;;;;10468782;28;20534;-70
2022/04/04 17:50:05;;;;;;;11.40;6.93;;;;;;;;;;10482185;28;20478;-74
2022/04/04 17:55:06;;;;;;;11.68;7.00;;;;;;;;;;10498307;28;20021;-70
2022/04/04 18:00:08;;;;;;;14.38;7.70;;;;;;;;;;10468673;28;20036;-72
2022/04/04 18:05:08;;;;;;;11.73;7.78;;;;;;;;;;10468902;28;20019;-74
2022/04/04 18:10:14;;;;;;;13.23;8.15;;;;;;;;;;10507251;28;20016;-75
2022/04/04 18:15:15;;;;;;;15.18;7.63;;;;;;;;;;10510135;28;20020;-75
2022/04/04 18:20:15;;;;;;;13.95;8.48;;;;;;;;;;10509517;28;20097;-78
2022/04/04 18:25:16;;;;;;;16.90;8.82;;;;;;;;;;10484033;28;20066;-73
2022/04/04 18:30:16;;;;;;;18.25;9.90;;;;;;;;;;10475680;28;20417;-72
2022/04/04 18:35:17;;;;;;;15.40;7.63;;;;;;;;;;10511056;28;20047;-75
2022/04/04 18:40:17;;;;;;;15.68;7.82;;;;;;;;;;10499152;28;20021;-70
2022/04/04 18:45:17;;;;;;;14.88;8.30;;;;;;;;;;10475978;28;20049;-72
2022/04/04 18:50:22;;;;;;;15.95;8.90;;;;;;;;;;10475132;28;20086;-71
2022/04/04 18:55:22;;;;;;;14.45;8.13;;;;;;;;;;10514455;28;20447;-71
2022/04/04 19:00:22;;;;;;;14.57;7.80;;;;;;;;;;10502916;28;20123;-74
2022/04/04 19:05:23;;;;;;;14.75;8.60;;;;;;;;;;10495745;28;20012;-71
2022/04/04 19:10:24;;;;;;;18.02;8.77;;;;;;;;;;10516216;28;20020;-77
2022/04/04 19:15:24;;;;;;;14.40;7.72;;;;;;;;;;10514712;28;20028;-72
2022/04/04 19:20:25;;;;;;;14.35;7.93;;;;;;;;;;10515470;28;20016;-72
2022/04/04 19:25:25;;;;;;;17.77;8.70;;;;;;;;;;10516114;28;20024;-71
2022/04/04 19:30:25;;;;;;;12.70;6.30;;;;;;;;;;10500847;28;20016;-72
2022/04/04 19:35:27;;;;;;;8.30;5.68;;;;;;;;;;10473500;28;20017;-71
2022/04/04 19:40:28;;;;;;;11.65;5.28;;;;;;;;;;10473406;28;20054;-77
2022/04/04 19:45:28;;;;;;;6.30;4.05;;;;;;;;;;10473697;28;20049;-70
2022/04/04 19:50:29;;;;;;;9.57;5.65;;;;;;;;;;10472614;28;20026;-71
2022/04/04 19:55:29;;;;;;;10.30;4.43;;;;;;;;;;10482817;28;20032;-74
2022/04/04 20:00:30;;;;;;;8.63;3.85;;;;;;;;;;10503740;28;20541;-75
2022/04/04 20:05:30;;;;;;;6.75;4.18;;;;;;;;;;10472290;28;20081;-71
2022/04/04 20:10:30;;;;;;;6.57;4.57;;;;;;;;;;10472170;28;20478;-71
2022/04/04 20:15:31;;;;;;;11.40;4.00;;;;;;;;;;10471408;28;20036;-71
2022/04/04 20:20:32;;;;;;;7.30;4.87;;;;;;;;;;10501458;28;20477;-71
2022/04/04 20:25:33;;;;;;;9.55;4.82;;;;;;;;;;10514475;28;20044;-76
2022/04/04 20:30:33;;;;;;;9.75;4.78;;;;;;;;;;10508178;28;20212;-76
2022/04/04 20:35:34;;;;;;;6.93;4.33;;;;;;;;;;10470482;28;20017;-70
2022/04/04 20:40:34;;;;;;;7.75;3.88;;;;;;;;;;10459676;28;20283;-73
2022/04/04 20:45:37;;;;;;;7.47;4.13;;;;;;;;;;10495579;28;20104;-71
2022/04/04 20:50:38;;;;;;;7.60;3.67;;;;;;;;;;10493851;28;20464;-74
2022/04/04 20:55:38;;;;;;;6.13;3.63;;;;;;;;;;10470661;28;20122;-71
2022/04/04 21:00:38;;;;;;;6.37;3.90;;;;;;;;;;10470445;28;20024;-71
2022/04/04 21:05:39;;;;;;;8.03;3.77;;;;;;;;;;10470244;28;20020;-75
2022/04/04 21:10:39;;;;;;;6.07;3.20;;;;;;;;;;10470422;28;20016;-70
2022/04/04 21:15:39;;;;;;;6.82;3.53;;;;;;;;;;10470437;28;20023;-71
2022/04/04 21:20:40;;;;;;;6.83;4.13;;;;;;;;;;10520025;28;20027;-72
2022/04/04 21:25:41;;;;;;;5.28;3.20;;;;;;;;;;10526817;28;20897;-70
2022/04/04 21:30:41;;;;;;;5.75;2.85;;;;;;;;;;10529378;28;20024;-71
2022/04/04 21:35:41;;;;;;;5.97;2.45;;;;;;;;;;10511418;28;20246;-71
2022/04/04 21:40:42;;;;;;;4.00;2.90;;;;;;;;;;10492064;28;20056;-70
2022/04/04 21:45:42;;;;;;;4.30;2.63;;;;;;;;;;10469673;28;20045;-71
2022/04/04 21:50:42;;;;;;;5.57;3.83;;;;;;;;;;10469869;28;20170;-71
2022/04/04 21:55:43;;;;;;;5.78;2.88;;;;;;;;;;10486960;28;20128;-70
2022/04/04 22:00:44;;;;;;;4.18;2.95;;;;;;;;;;10488628;28;20033;-74
2022/04/04 22:05:44;;;;;;;5.75;3.38;;;;;;;;;;10509892;28;20019;-72
2022/04/04 22:10:44;;;;;;;4.90;3.67;;;;;;;;;;10524560;28;20020;-73
2022/04/04 22:15:45;;;;;;;6.90;3.53;;;;;;;;;;10525664;28;20123;-73
2022/04/04 22:20:45;;;;;;;5.30;3.72;;;;;;;;;;10516118;28;20038;-75
2022/04/04 22:25:48;;;;;;;4.47;3.28;;;;;;;;;;10542245;28;20055;-71
2022/04/04 22:30:51;;;;;;;6.57;4.20;;;;;;;;;;10523650;28;20024;-72
2022/04/04 22:35:52;;;;;;;9.30;5.40;;;;;;;;;;10524857;28;20076;-75
2022/04/04 22:40:52;;;;;;;11.05;6.28;;;;;;;;;;10523547;28;20020;-71
2022/04/04 22:45:52;;;;;;;10.60;6.47;;;;;;;;;;10523205;28;20148;-71
2022/04/04 22:50:53;;;;;;;15.98;6.35;;;;;;;;;;10523394;28;20028;-71
2022/04/04 22:55:53;;;;;;;11.93;5.90;;;;;;;;;;10510805;28;20032;-70
2022/04/04 23:00:53;;;;;;;10.50;6.30;;;;;;;;;;10482797;28;20029;-71
2022/04/04 23:05:54;;;;;;;12.40;6.33;;;;;;;;;;10482702;28;20020;-71
2022/04/04 23:10:54;;;;;;;9.60;5.78;;;;;;;;;;10482872;28;20024;-78
2022/04/04 23:15:54;;;;;;;16.60;9.45;;;;;;;;;;10476026;28;20024;-71
2022/04/04 23:20:54;;;;;;;13.07;6.85;;;;;;;;;;10459172;28;20051;-72
2022/04/04 23:25:55;;;;;;;15.52;7.93;;;;;;;;;;10475886;28;20474;-72
2022/04/04 23:30:55;;;;;;;15.83;7.57;;;;;;;;;;10475304;28;20124;-71
2022/04/04 23:35:55;;;;;;;13.30;7.68;;;;;;;;;;10475108;28;20469;-74
2022/04/04 23:40:56;;;;;;;13.40;7.45;;;;;;;;;;10475252;28;20111;-73
2022/04/04 23:45:57;;;;;;;13.90;7.83;;;;;;;;;;10474482;28;20648;-70
2022/04/04 23:50:59;;;;;;;15.38;9.25;;;;;;;;;;10475336;28;20045;-73
2022/04/04 23:55:59;;;;;;;17.10;8.95;;;;;;;;;;10475175;28;20566;-70
